createdAt,value
2023-02-14T00:01:39.788Z,101813.25
2023-02-14T00:04:08.195Z,101809.66
2023-02-14T00:06:39.024Z,101804.02
2023-02-14T00:09:11.373Z,101802.29
2023-02-14T00:11:40.162Z,101803.98
2023-02-14T00:14:27.310Z,101805.70
2023-02-14T00:16:55.348Z,101808.80
2023-02-14T00:19:23.699Z,101807.95
2023-02-14T00:21:51.832Z,101807.42
2023-02-14T00:24:22.750Z,101811.39
2023-02-14T00:26:51.804Z,101808.46
2023-02-14T00:29:26.564Z,101808.95
2023-02-14T00:31:55.269Z,101806.53
2023-02-14T00:34:25.857Z,101809.09
2023-02-14T00:36:54.009Z,101807.89
2023-02-14T00:39:22.230Z,101812.02
2023-02-14T00:41:50.293Z,101815.44
2023-02-14T00:44:18.383Z,101817.85
2023-02-14T00:46:46.238Z,101815.45
2023-02-14T00:49:14.921Z,101817.46
2023-02-14T00:51:42.886Z,101815.42
2023-02-14T00:54:10.770Z,101815.09
2023-02-14T00:56:38.687Z,101822.66
2023-02-14T00:59:06.520Z,101818.02
2023-02-14T01:01:34.360Z,101812.02
2023-02-14T01:04:05.132Z,101811.86
2023-02-14T01:06:33.668Z,101816.13
2023-02-14T01:09:01.649Z,101819.02
2023-02-14T01:11:30.380Z,101821.56
2023-02-14T01:13:59.721Z,101820.16
2023-02-14T01:16:29.166Z,101816.19
2023-02-14T01:19:00.376Z,101813.23
2023-02-14T01:21:33.250Z,101808.95
2023-02-14T01:24:04.369Z,101809.09
2023-02-14T01:26:33.302Z,101805.83
2023-02-14T01:29:03.918Z,101812.16
2023-02-14T01:31:34.386Z,101812.33
2023-02-14T01:34:03.369Z,101807.85
2023-02-14T01:36:35.610Z,101807.80
2023-02-14T01:39:07.474Z,101818.45
2023-02-14T01:41:38.185Z,101822.94
2023-02-14T01:44:17.040Z,101829.27
2023-02-14T01:46:47.216Z,101831.13
2023-02-14T01:49:25.718Z,101834.88
2023-02-14T01:52:00.633Z,101831.79
2023-02-14T01:54:33.311Z,101827.14
2023-02-14T01:57:05.854Z,101828.46
2023-02-14T01:59:41.890Z,101822.05
2023-02-14T02:02:10.362Z,101814.52
2023-02-14T02:04:45.009Z,101817.61
2023-02-14T02:07:21.581Z,101817.64
2023-02-14T02:09:58.365Z,101818.91
2023-02-14T02:12:29.198Z,101820.42
2023-02-14T02:15:00.421Z,101822.78
2023-02-14T02:17:52.947Z,101817.41
2023-02-14T02:20:29.199Z,101819.38
2023-02-14T02:23:21.287Z,101822.09
2023-02-14T02:26:01.719Z,101820.17
2023-02-14T02:28:50.702Z,101825.84
2023-02-14T02:31:58.776Z,101825.96
2023-02-14T02:34:53.139Z,101831.83
2023-02-14T02:37:52.839Z,101841.63
2023-02-14T02:40:29.705Z,101849.48
2023-02-14T02:43:19.166Z,101845.71
2023-02-14T02:46:19.856Z,101845.16
2023-02-14T02:49:06.914Z,101845.65
2023-02-14T02:52:13.202Z,101853.52
2023-02-14T02:54:45.143Z,101851.27
2023-02-14T02:57:21.704Z,101860.84
2023-02-14T02:59:52.347Z,101867.47
2023-02-14T03:02:28.921Z,101870.01
2023-02-14T03:05:02.284Z,101869.80
2023-02-14T03:07:35.208Z,101870.30
2023-02-14T03:10:16.582Z,101868.91
2023-02-14T03:12:54.490Z,101862.33
2023-02-14T03:15:31.833Z,101864.77
2023-02-14T03:18:02.909Z,101860.23
2023-02-14T03:20:54.226Z,101862.38
2023-02-14T03:23:29.621Z,101868.54
2023-02-14T03:26:10.027Z,101871.73
2023-02-14T03:28:47.116Z,101863.59
2023-02-14T03:31:32.715Z,101867.91
2023-02-14T03:34:23.190Z,101861.05
2023-02-14T03:37:01.253Z,101866.92
2023-02-14T03:39:46.331Z,101866.86
2023-02-14T03:42:26.118Z,101865.14
2023-02-14T03:44:58.439Z,101869.23
2023-02-14T03:47:30.970Z,101871.50
2023-02-14T03:50:10.621Z,101871.64
2023-02-14T03:52:40.530Z,101870.20
2023-02-14T03:55:09.808Z,101868.20
2023-02-14T03:57:49.662Z,101877.11
2023-02-14T04:00:18.571Z,101873.67
2023-02-14T04:02:51.440Z,101869.55
2023-02-14T04:05:25.134Z,101865.38
2023-02-14T04:07:56.482Z,101871.15
2023-02-14T04:10:25.709Z,101869.21
2023-02-14T04:12:54.075Z,101858.25
2023-02-14T04:15:22.281Z,101861.15
2023-02-14T04:18:08.941Z,101863.20
2023-02-14T04:20:37.522Z,101859.55
2023-02-14T04:23:05.396Z,101860.91
2023-02-14T04:25:33.418Z,101866.77
2023-02-14T04:28:01.250Z,101863.38
2023-02-14T04:30:29.162Z,101858.05
2023-02-14T04:32:57.214Z,101868.14
2023-02-14T04:35:25.146Z,101872.14
2023-02-14T04:37:52.969Z,101874.48
2023-02-14T04:40:21.220Z,101885.10
2023-02-14T04:42:49.135Z,101883.31
2023-02-14T04:45:17.282Z,101890.64
2023-02-14T04:47:45.823Z,101896.79
2023-02-14T04:50:14.610Z,101889.23
2023-02-14T04:52:42.431Z,101888.42
2023-02-14T04:55:11.168Z,101892.69
2023-02-14T04:57:38.985Z,101890.84
2023-02-14T05:00:08.142Z,101895.49
2023-02-14T05:02:37.079Z,101898.75
2023-02-14T05:05:05.652Z,101899.14
2023-02-14T05:07:33.684Z,101895.69
2023-02-14T05:10:01.939Z,101903.09
2023-02-14T05:12:29.773Z,101909.09
2023-02-14T05:14:58.192Z,101914.36
2023-02-14T05:17:26.225Z,101912.98
2023-02-14T05:19:54.157Z,101909.58
2023-02-14T05:22:22.099Z,101916.80
2023-02-14T05:24:50.017Z,101916.50
2023-02-14T05:27:18.059Z,101914.75
2023-02-14T05:29:45.891Z,101917.95
2023-02-14T05:32:13.852Z,101925.23
2023-02-14T05:34:41.824Z,101925.94
2023-02-14T05:37:09.766Z,101919.77
2023-02-14T05:39:37.639Z,101923.90
2023-02-14T05:42:05.675Z,101927.88
2023-02-14T05:44:33.693Z,101922.37
2023-02-14T05:47:01.633Z,101920.27
2023-02-14T05:49:29.460Z,101926.16
2023-02-14T05:51:57.301Z,101929.71
2023-02-14T05:54:25.447Z,101932.95
2023-02-14T05:56:53.278Z,101932.69
2023-02-14T05:59:21.203Z,101936.55
2023-02-14T06:01:49.379Z,101935.67
2023-02-14T06:04:17.772Z,101944.41
2023-02-14T06:06:45.702Z,101939.66
2023-02-14T06:09:14.101Z,101941.91
2023-02-14T06:11:42.165Z,101942.79
2023-02-14T06:14:10.211Z,101944.33
2023-02-14T06:16:38.120Z,101950.18
2023-02-14T06:19:06.160Z,101954.26
2023-02-14T06:21:34.132Z,101948.11
2023-02-14T06:24:02.349Z,101955.17
2023-02-14T06:26:30.860Z,101956.24
2023-02-14T06:29:01.113Z,101950.45
2023-02-14T06:31:29.370Z,101950.29
2023-02-14T06:33:57.358Z,101953.53
2023-02-14T06:36:26.019Z,101957.33
2023-02-14T06:38:54.081Z,101953.29
2023-02-14T06:41:21.909Z,101955.90
2023-02-14T06:43:49.856Z,101961.02
2023-02-14T06:46:18.849Z,101958.08
2023-02-14T06:48:47.319Z,101958.21
2023-02-14T06:51:15.610Z,101958.92
2023-02-14T06:53:43.662Z,101956.32
2023-02-14T06:56:11.631Z,101960.59
2023-02-14T06:58:39.701Z,101951.89
2023-02-14T07:01:07.690Z,101955.49
2023-02-14T07:03:35.684Z,101964.13
2023-02-14T07:06:03.712Z,101958.70
2023-02-14T07:08:31.535Z,101962.46
2023-02-14T07:10:59.798Z,101964.98
2023-02-14T07:13:28.456Z,101968.19
2023-02-14T07:15:57.282Z,101966.63
2023-02-14T07:18:25.300Z,101966.04
2023-02-14T07:20:53.676Z,101971.96
2023-02-14T07:23:21.945Z,101974.10
2023-02-14T07:25:49.776Z,101973.92
2023-02-14T07:28:17.863Z,101976.80
2023-02-14T07:30:46.223Z,101978.80
2023-02-14T07:33:14.317Z,101981.98
2023-02-14T07:35:42.223Z,101978.58
2023-02-14T07:38:10.048Z,101982.99
2023-02-14T07:40:37.965Z,101981.56
2023-02-14T07:43:06.540Z,101984.73
2023-02-14T07:45:34.360Z,101986.54
2023-02-14T07:48:02.762Z,101988.46
2023-02-14T07:50:30.933Z,101987.29
2023-02-14T07:52:58.908Z,101980.13
2023-02-14T07:55:27.252Z,101986.57
2023-02-14T07:57:55.164Z,101990.59
2023-02-14T08:00:23.323Z,101994.64
2023-02-14T08:02:51.401Z,102001.08
2023-02-14T08:05:19.942Z,102003.70
2023-02-14T08:07:48.214Z,102010.21
2023-02-14T08:10:16.667Z,102007.38
2023-02-14T08:13:00.029Z,102009.66
2023-02-14T08:15:52.175Z,102019.92
2023-02-14T08:18:23.186Z,102019.16
2023-02-14T08:20:51.633Z,102022.97
2023-02-14T08:23:21.087Z,102021.26
2023-02-14T08:25:50.945Z,102025.91
2023-02-14T08:28:22.466Z,102029.38
2023-02-14T08:30:51.553Z,102031.11
2023-02-14T08:33:20.611Z,102028.52
2023-02-14T08:35:48.859Z,102031.95
2023-02-14T08:38:16.897Z,102033.50
2023-02-14T08:40:44.932Z,102031.60
2023-02-14T08:50:46.918Z,102035.48
2023-02-14T08:53:15.189Z,102035.96
2023-02-14T08:55:43.108Z,102033.65
2023-02-14T08:58:11.845Z,102030.79
2023-02-14T09:00:39.933Z,102033.38
2023-02-14T09:03:08.083Z,102035.05
2023-02-14T09:05:36.265Z,102046.08
2023-02-14T09:08:05.858Z,102041.81
2023-02-14T09:10:33.931Z,102040.02
2023-02-14T09:13:01.896Z,102037.58
2023-02-14T09:15:30.117Z,102039.89
2023-02-14T09:17:58.038Z,102035.27
2023-02-14T09:20:26.217Z,102034.73
2023-02-14T09:22:57.447Z,102038.23
2023-02-14T09:25:25.435Z,102047.93
2023-02-14T09:27:53.502Z,102048.36
2023-02-14T09:30:21.791Z,102048.15
2023-02-14T09:32:52.226Z,102047.63
2023-02-14T09:35:39.451Z,102047.86
2023-02-14T09:38:19.585Z,102051.57
2023-02-14T09:40:48.970Z,102054.56
2023-02-14T09:43:38.793Z,102055.92
2023-02-14T09:46:12.126Z,102051.09
2023-02-14T09:48:45.193Z,102055.70
2023-02-14T09:51:20.240Z,102048.04
2023-02-14T09:54:02.354Z,102047.52
2023-02-14T09:56:52.009Z,102047.14
2023-02-14T09:59:23.634Z,102049.40
2023-02-14T10:01:58.429Z,102049.15
2023-02-14T10:04:39.792Z,102053.89
2023-02-14T10:07:47.915Z,102051.92
2023-02-14T10:10:33.726Z,102057.01
2023-02-14T10:13:19.795Z,102057.19
2023-02-14T10:15:51.316Z,102055.02
2023-02-14T10:18:25.441Z,102058.82
2023-02-14T10:20:58.117Z,102054.93
2023-02-14T10:23:35.442Z,102052.29
2023-02-14T10:26:17.573Z,102058.11
2023-02-14T10:28:49.458Z,102054.55
2023-02-14T10:31:20.798Z,102052.87
2023-02-14T10:34:10.382Z,102055.77
2023-02-14T10:36:41.349Z,102051.55
2023-02-14T10:39:42.705Z,102043.30
2023-02-14T10:42:34.083Z,102047.69
2023-02-14T10:45:23.593Z,102049.41
2023-02-14T10:48:09.375Z,102048.21
2023-02-14T10:50:49.335Z,102049.94
2023-02-14T10:53:25.902Z,102049.58
2023-02-14T10:56:07.056Z,102048.96
2023-02-14T10:58:38.842Z,102052.27
2023-02-14T11:01:14.091Z,102045.95
2023-02-14T11:04:03.635Z,102049.30
2023-02-14T11:06:31.633Z,102038.84
2023-02-14T11:08:59.586Z,102033.39
2023-02-14T11:11:33.556Z,102038.45
2023-02-14T11:14:22.721Z,102033.48
2023-02-14T11:16:53.455Z,102038.02
2023-02-14T11:19:26.944Z,102041.47
2023-02-14T11:21:58.224Z,102031.60
2023-02-14T11:24:35.646Z,102031.58
2023-02-14T11:27:12.400Z,102033.83
2023-02-14T11:29:48.191Z,102029.83
2023-02-14T11:32:23.177Z,102033.40
2023-02-14T11:35:18.596Z,102034.59
2023-02-14T11:37:51.879Z,102040.97
2023-02-14T11:40:31.430Z,102033.29
2023-02-14T11:43:14.239Z,102025.64
2023-02-14T11:45:45.690Z,102024.89
2023-02-14T11:48:19.985Z,102019.84
2023-02-14T11:51:15.864Z,102020.73
2023-02-14T11:53:53.999Z,102016.36
2023-02-14T11:56:23.942Z,102015.87
2023-02-14T11:59:04.575Z,102011.30
2023-02-14T12:01:35.151Z,102012.20
2023-02-14T12:04:23.223Z,102013.58
2023-02-14T12:06:51.165Z,102016.80
2023-02-14T12:09:21.743Z,102015.85
2023-02-14T12:12:01.487Z,102009.11
2023-02-14T12:14:35.500Z,102002.77
2023-02-14T12:17:19.599Z,102008.93
2023-02-14T12:20:09.891Z,102011.11
2023-02-14T12:22:46.716Z,102004.21
2023-02-14T12:25:16.403Z,102003.97
2023-02-14T12:27:51.175Z,102003.98
2023-02-14T12:30:24.494Z,102005.85
2023-02-14T12:32:56.556Z,102006.86
2023-02-14T12:35:52.381Z,102005.87
2023-02-14T12:38:35.519Z,102000.81
2023-02-14T12:41:45.955Z,101998.27
2023-02-14T12:44:32.166Z,101996.55
2023-02-14T12:47:18.078Z,101990.47
2023-02-14T12:50:03.299Z,101990.60
2023-02-14T12:52:54.308Z,101998.66
2023-02-14T12:56:00.773Z,102003.77
2023-02-14T12:58:40.904Z,101998.86
2023-02-14T13:01:29.057Z,102000.52
2023-02-14T13:04:20.778Z,101995.70
2023-02-14T13:06:59.800Z,101994.64
2023-02-14T13:09:45.748Z,101997.86
2023-02-14T13:12:42.285Z,102000.73
2023-02-14T13:15:14.932Z,102001.60
2023-02-14T13:17:52.139Z,101997.53
2023-02-14T13:20:44.077Z,101991.16
2023-02-14T13:23:33.485Z,102000.63
2023-02-14T13:26:08.922Z,102005.28
2023-02-14T13:28:38.710Z,102001.14
2023-02-14T13:31:07.209Z,102001.73
2023-02-14T13:33:43.676Z,102004.60
2023-02-14T13:36:13.566Z,102005.13
2023-02-14T13:38:51.676Z,102004.97
2023-02-14T13:41:21.626Z,102004.48
2023-02-14T13:43:57.773Z,102007.71
2023-02-14T13:46:34.520Z,102008.20
2023-02-14T13:49:22.151Z,102008.88
2023-02-14T13:51:54.294Z,102003.18
2023-02-14T13:54:31.534Z,102004.05
2023-02-14T13:57:25.057Z,101999.45
2023-02-14T14:00:35.354Z,102001.98
2023-02-14T14:03:04.889Z,101997.52
2023-02-14T14:05:33.009Z,101994.77
2023-02-14T14:08:23.476Z,101990.91
2023-02-14T14:10:57.641Z,101992.09
2023-02-14T14:13:40.984Z,101995.38
2023-02-14T14:16:24.583Z,101994.50
2023-02-14T14:19:09.326Z,101995.17
2023-02-14T14:21:40.363Z,101992.27
2023-02-14T14:24:25.667Z,101993.46
2023-02-14T14:27:17.899Z,101995.98
2023-02-14T14:30:01.177Z,102005.91
2023-02-14T14:32:34.901Z,102004.84
2023-02-14T14:35:26.390Z,102004.29
2023-02-14T14:37:57.363Z,101999.61
2023-02-14T14:40:34.342Z,102001.66
2023-02-14T14:43:12.808Z,102005.42
2023-02-14T14:45:42.024Z,102006.39
2023-02-14T14:48:13.792Z,102006.02
2023-02-14T14:50:46.309Z,102004.30
2023-02-14T14:53:42.584Z,102009.64
2023-02-14T14:56:30.910Z,102002.23
2023-02-14T14:59:29.772Z,101998.43
2023-02-14T15:01:58.244Z,101998.03
2023-02-14T15:04:32.534Z,102001.86
2023-02-14T15:07:20.234Z,102003.80
2023-02-14T15:09:48.816Z,102002.07
2023-02-14T15:12:41.764Z,102008.45
2023-02-14T15:15:16.801Z,102007.96
2023-02-14T15:17:46.126Z,102006.08
2023-02-14T15:20:21.225Z,102004.53
2023-02-14T15:22:52.597Z,102009.33
2023-02-14T15:25:23.482Z,102009.83
2023-02-14T15:27:51.715Z,102012.05
2023-02-14T15:30:19.713Z,102013.77
2023-02-14T15:32:49.644Z,102013.09
2023-02-14T15:35:31.645Z,102015.63
2023-02-14T15:38:04.377Z,102018.16
2023-02-14T15:40:34.302Z,102018.43
2023-02-14T15:43:25.184Z,102016.52
2023-02-14T15:45:57.511Z,102014.77
2023-02-14T15:48:34.113Z,102012.69
2023-02-14T15:51:04.895Z,102015.95
2023-02-14T15:53:54.009Z,102013.89
2023-02-14T15:56:26.364Z,102015.73
2023-02-14T15:59:07.463Z,102018.40
2023-02-14T16:01:37.867Z,102017.98
2023-02-14T16:04:08.698Z,102020.00
2023-02-14T16:06:44.987Z,102021.49
2023-02-14T16:09:30.710Z,102032.63
2023-02-14T16:11:58.712Z,102035.20
2023-02-14T16:14:35.356Z,102033.52
2023-02-14T16:17:06.295Z,102035.98
2023-02-14T16:19:38.307Z,102037.15
2023-02-14T16:22:07.213Z,102042.65
2023-02-14T16:24:37.907Z,102038.51
2023-02-14T16:27:09.764Z,102041.08
2023-02-14T16:29:37.965Z,102040.40
2023-02-14T16:32:18.771Z,102043.08
2023-02-14T16:34:47.594Z,102045.41
2023-02-14T16:37:46.512Z,102042.13
2023-02-14T16:40:15.984Z,102046.38
2023-02-14T16:42:44.233Z,102047.38
2023-02-14T16:45:17.486Z,102041.54
2023-02-14T16:47:49.261Z,102044.11
2023-02-14T16:50:17.838Z,102043.26
2023-02-14T16:52:51.426Z,102047.69
2023-02-14T16:55:20.773Z,102047.20
2023-02-14T16:57:51.600Z,102047.05
2023-02-14T17:00:20.112Z,102046.35
2023-02-14T17:02:48.337Z,102046.51
2023-02-14T17:05:16.565Z,102045.09
2023-02-14T17:07:44.665Z,102045.61
2023-02-14T17:10:18.333Z,102048.38
2023-02-14T17:12:48.818Z,102048.39
2023-02-14T17:15:20.148Z,102049.09
2023-02-14T17:17:49.355Z,102055.58
2023-02-14T17:20:20.536Z,102058.15
2023-02-14T17:22:48.547Z,102060.58
2023-02-14T17:25:16.750Z,102061.59
2023-02-14T17:27:46.366Z,102059.81
2023-02-14T17:30:14.936Z,102059.80
2023-02-14T17:32:43.224Z,102058.52
2023-02-14T17:35:12.108Z,102060.66
2023-02-14T17:37:40.265Z,102063.22
2023-02-14T17:40:09.279Z,102061.16
2023-02-14T17:42:38.862Z,102062.36
2023-02-14T17:45:08.270Z,102060.43
2023-02-14T17:47:36.331Z,102061.10
2023-02-14T17:50:04.462Z,102058.04
2023-02-14T17:52:32.384Z,102057.88
2023-02-14T17:55:00.561Z,102056.53
2023-02-14T17:57:28.686Z,102056.68
2023-02-14T17:59:58.631Z,102056.13
2023-02-14T18:02:28.908Z,102055.62
2023-02-14T18:04:58.567Z,102056.31
2023-02-14T18:07:27.107Z,102053.45
2023-02-14T18:09:56.869Z,102058.83
2023-02-14T18:12:24.929Z,102057.34
2023-02-14T18:14:55.280Z,102055.09
2023-02-14T18:17:23.162Z,102058.48
2023-02-14T18:19:51.028Z,102058.49
2023-02-14T18:22:19.063Z,102057.48
2023-02-14T18:24:47.035Z,102055.58
2023-02-14T18:27:16.029Z,102057.27
2023-02-14T18:29:44.112Z,102054.88
2023-02-14T18:32:12.219Z,102056.95
2023-02-14T18:34:40.280Z,102055.91
2023-02-14T18:37:08.310Z,102057.45
2023-02-14T18:39:36.189Z,102054.18
2023-02-14T18:42:05.498Z,102049.37
2023-02-14T18:44:33.707Z,102049.89
2023-02-14T18:47:02.836Z,102049.67
2023-02-14T18:49:31.219Z,102048.65
2023-02-14T18:51:59.102Z,102046.39
2023-02-14T18:54:27.151Z,102050.64
2023-02-14T18:56:55.307Z,102050.58
2023-02-14T18:59:23.163Z,102054.02
2023-02-14T19:01:50.961Z,102056.75
2023-02-14T19:04:18.864Z,102057.98
2023-02-14T19:06:46.724Z,102055.08
2023-02-14T19:09:17.312Z,102051.61
2023-02-14T19:11:45.736Z,102050.89
2023-02-14T19:14:13.808Z,102051.85
2023-02-14T19:16:50.196Z,102052.48
2023-02-14T19:19:20.166Z,102053.46
2023-02-14T19:21:48.500Z,102052.38
2023-02-14T19:24:17.765Z,102054.40
2023-02-14T19:26:46.648Z,102051.79
2023-02-14T19:29:20.231Z,102051.23
2023-02-14T19:31:51.360Z,102054.32
2023-02-14T19:34:23.710Z,102053.52
2023-02-14T19:36:53.182Z,102056.92
2023-02-14T19:39:21.492Z,102058.45
2023-02-14T19:41:49.992Z,102056.92
2023-02-14T19:44:18.889Z,102060.00
2023-02-14T19:46:47.801Z,102061.66
2023-02-14T19:49:19.851Z,102066.48
2023-02-14T19:51:51.209Z,102068.02
2023-02-14T19:54:19.455Z,102065.83
2023-02-14T19:56:48.162Z,102066.71
2023-02-14T19:59:20.398Z,102068.11
2023-02-14T20:01:56.736Z,102063.34
2023-02-14T20:04:27.929Z,102061.30
2023-02-14T20:06:56.807Z,102061.44
2023-02-14T20:09:25.854Z,102061.75
2023-02-14T20:11:57.627Z,102063.60
2023-02-14T20:14:47.118Z,102063.96
2023-02-14T20:17:19.938Z,102064.33
2023-02-14T20:19:49.052Z,102060.39
2023-02-14T20:22:16.912Z,102060.02
2023-02-14T20:24:45.078Z,102057.47
2023-02-14T20:27:12.937Z,102055.91
2023-02-14T20:29:44.928Z,102055.52
2023-02-14T20:32:15.826Z,102058.41
2023-02-14T20:34:45.022Z,102055.24
2023-02-14T20:37:12.921Z,102057.64
2023-02-14T20:39:40.904Z,102057.16
2023-02-14T20:42:09.445Z,102055.60
2023-02-14T20:44:38.076Z,102050.79
2023-02-14T20:47:06.807Z,102056.40
2023-02-14T20:49:35.863Z,102054.58
2023-02-14T20:52:04.072Z,102053.73
2023-02-14T20:54:32.248Z,102051.37
2023-02-14T20:57:00.155Z,102055.07
2023-02-14T20:59:28.974Z,102057.13
2023-02-14T21:01:59.235Z,102055.92
2023-02-14T21:04:28.002Z,102058.64
2023-02-14T21:06:59.680Z,102061.42
2023-02-14T21:09:28.408Z,102062.68
2023-02-14T21:11:58.172Z,102062.94
2023-02-14T21:14:26.156Z,102063.83
2023-02-14T21:16:53.977Z,102067.27
2023-02-14T21:19:22.300Z,102067.35
2023-02-14T21:21:50.688Z,102069.23
2023-02-14T21:24:18.545Z,102072.05
2023-02-14T21:26:46.499Z,102071.98
2023-02-14T21:29:14.929Z,102071.38
2023-02-14T21:31:43.268Z,102069.69
2023-02-14T21:34:14.097Z,102069.27
2023-02-14T21:36:42.247Z,102067.77
2023-02-14T21:39:10.140Z,102066.27
2023-02-14T21:41:38.079Z,102066.43
2023-02-14T21:44:06.882Z,102067.29
2023-02-14T21:46:39.497Z,102064.04
2023-02-14T21:49:26.299Z,102068.04
2023-02-14T21:51:54.514Z,102071.70
2023-02-14T21:54:22.581Z,102066.23
2023-02-14T21:56:50.493Z,102069.67
2023-02-14T21:59:18.279Z,102069.31
2023-02-14T22:01:46.099Z,102068.45
2023-02-14T22:04:14.515Z,102071.53
2023-02-14T22:06:43.028Z,102075.63
2023-02-14T22:09:13.727Z,102073.72
2023-02-14T22:11:41.796Z,102070.58
2023-02-14T22:14:09.772Z,102073.67
2023-02-14T22:24:23.054Z,102065.08
2023-02-14T22:26:50.896Z,102063.23
2023-02-14T22:29:18.956Z,102063.77
2023-02-14T22:31:46.949Z,102064.29
2023-02-14T22:34:19.651Z,102058.95
2023-02-14T22:36:48.709Z,102063.94
2023-02-14T22:39:17.176Z,102063.58
2023-02-14T22:41:46.713Z,102064.97
2023-02-14T22:44:14.544Z,102063.42
2023-02-14T22:46:42.792Z,102063.06
2023-02-14T22:49:10.713Z,102059.30
2023-02-14T22:51:41.028Z,102060.49
2023-02-14T22:54:15.124Z,102057.06
2023-02-14T22:56:45.796Z,102062.35
2023-02-14T22:59:24.804Z,102060.50
2023-02-14T23:01:53.944Z,102055.55
2023-02-14T23:04:24.820Z,102056.45
2023-02-14T23:06:53.750Z,102053.20
2023-02-14T23:09:22.899Z,102053.73
2023-02-14T23:11:52.142Z,102054.48
2023-02-14T23:14:39.107Z,102055.16
2023-02-14T23:17:26.069Z,102055.16
2023-02-14T23:20:12.649Z,102059.98
2023-02-14T23:22:41.229Z,102052.77
2023-02-14T23:25:11.791Z,102055.86
2023-02-14T23:27:43.220Z,102055.35
2023-02-14T23:30:16.626Z,102056.56
2023-02-14T23:32:44.691Z,102053.11
2023-02-14T23:35:12.598Z,102056.17
2023-02-14T23:37:41.037Z,102048.45
2023-02-14T23:40:10.017Z,102055.59
2023-02-14T23:42:38.140Z,102051.25
2023-02-14T23:45:25.657Z,102050.52
2023-02-14T23:47:53.579Z,102050.48
2023-02-14T23:50:21.514Z,102050.83
2023-02-14T23:52:49.324Z,102048.95
2023-02-14T23:55:17.383Z,102051.19
2023-02-14T23:57:45.481Z,102051.55
